Mc Donald, Pennsylvania
Current Conditions -  °F | °C
As of 6:51 AM on Thursday 27 Nov 2014 (Local Time) from KPIT Reporting Station
Haze Haze  
Wind Chill: 31°   Ceiling: 4400
Heat Index: 31°   Visibility: 5mi
Dew Point: 29°   Wind: 3mph
Humidity: 92%   Direction: 270°W
Pressure: 30.01"   Gusts: NA
Location:  40.3662°N, 80.2739°W
Report Text: KPIT 271151Z 27003KT 5SM BR FEW006 SCT029 OVC044 M01/M02 A3001 RMK AO2 SLP184 70006 T10061017 10000 21006 53009
Loading
Personal Weather Stations






























Interactive Weather Map New forecast layout! Learn more

10-Day Weather Forecast

Advertisements
Track Severe Weather on mobile